createdAt,value
2023-02-17T00:00:33.766Z,63.64
2023-02-17T00:01:36.168Z,63.81
2023-02-17T00:02:37.826Z,64.09
2023-02-17T00:03:39.505Z,64.08
2023-02-17T00:04:41.086Z,64.29
2023-02-17T00:05:42.618Z,64.43
2023-02-17T00:06:44.241Z,64.61
2023-02-17T00:07:45.694Z,64.50
2023-02-17T00:08:47.273Z,64.17
2023-02-17T00:09:48.745Z,64.03
2023-02-17T00:10:59.503Z,63.98
2023-02-17T00:12:00.978Z,64.03
2023-02-17T00:13:02.705Z,64.22
2023-02-17T00:14:04.532Z,64.25
2023-02-17T00:15:06.225Z,63.96
2023-02-17T00:16:10.984Z,64.34
2023-02-17T00:17:12.551Z,64.35
2023-02-17T00:18:14.022Z,64.08
2023-02-17T00:19:25.284Z,64.15
2023-02-17T00:20:28.361Z,64.07
2023-02-17T00:21:30.706Z,63.91
2023-02-17T00:22:32.187Z,63.66
2023-02-17T00:23:33.698Z,63.74
2023-02-17T00:24:37.243Z,63.87
2023-02-17T00:25:38.935Z,63.93
2023-02-17T00:26:40.463Z,64.25
2023-02-17T00:27:41.926Z,64.39
2023-02-17T00:28:43.515Z,64.14
2023-02-17T00:29:45.128Z,64.18
2023-02-17T00:30:46.570Z,63.95
2023-02-17T00:31:48.182Z,64.14
2023-02-17T00:32:49.689Z,64.31
2023-02-17T00:33:53.490Z,64.60
2023-02-17T00:34:56.912Z,64.35
2023-02-17T00:35:58.386Z,64.80
2023-02-17T00:36:59.905Z,64.81
2023-02-17T00:38:01.434Z,64.52
2023-02-17T00:39:03.016Z,64.79
2023-02-17T00:40:04.683Z,64.67
2023-02-17T00:41:08.234Z,64.40
2023-02-17T00:42:09.772Z,64.50
2023-02-17T00:43:11.224Z,64.87
2023-02-17T00:44:16.421Z,64.99
2023-02-17T00:45:18.348Z,64.83
2023-02-17T00:46:19.947Z,64.85
2023-02-17T00:47:21.471Z,65.31
2023-02-17T00:48:22.990Z,65.08
2023-02-17T00:49:25.124Z,65.25
2023-02-17T00:50:26.737Z,65.19
2023-02-17T00:51:28.241Z,65.36
2023-02-17T00:52:31.101Z,65.62
2023-02-17T00:53:32.561Z,65.84
2023-02-17T00:54:34.852Z,65.65
2023-02-17T00:55:36.839Z,65.66
2023-02-17T00:56:38.382Z,65.53
2023-02-17T00:57:39.860Z,65.44
2023-02-17T00:58:41.651Z,65.13
2023-02-17T00:59:43.166Z,64.96
2023-02-17T01:00:44.641Z,65.19
2023-02-17T01:01:46.252Z,64.90
2023-02-17T01:02:47.732Z,64.91
2023-02-17T01:03:49.213Z,64.90
2023-02-17T01:04:50.733Z,64.87
2023-02-17T01:05:52.397Z,65.12
2023-02-17T01:06:53.889Z,64.92
2023-02-17T01:07:57.625Z,64.59
2023-02-17T01:08:59.095Z,64.73
2023-02-17T01:10:01.565Z,64.63
2023-02-17T01:11:03.123Z,64.29
2023-02-17T01:12:06.768Z,64.75
2023-02-17T01:13:08.480Z,64.56
2023-02-17T01:14:10.956Z,64.85
2023-02-17T01:15:12.913Z,64.84
2023-02-17T01:16:18.085Z,64.51
2023-02-17T01:17:19.593Z,64.73
2023-02-17T01:18:21.777Z,64.78
2023-02-17T01:19:25.097Z,64.80
2023-02-17T01:20:27.556Z,64.54
2023-02-17T01:21:29.128Z,64.75
2023-02-17T01:22:30.621Z,64.91
2023-02-17T01:23:32.148Z,65.20
2023-02-17T01:24:33.876Z,65.21
2023-02-17T01:25:40.342Z,65.06
2023-02-17T01:26:42.051Z,64.75
2023-02-17T01:27:43.545Z,64.86
2023-02-17T01:28:45.014Z,64.81
2023-02-17T01:29:46.477Z,64.67
2023-02-17T01:30:48.393Z,64.50
2023-02-17T01:31:49.916Z,64.73
2023-02-17T01:32:51.629Z,65.04
2023-02-17T01:33:56.385Z,64.90
2023-02-17T01:34:57.875Z,65.06
2023-02-17T01:36:06.135Z,64.87
2023-02-17T01:37:07.748Z,65.10
2023-02-17T01:38:10.869Z,65.64
2023-02-17T01:39:13.582Z,65.27
2023-02-17T01:40:15.214Z,65.32
2023-02-17T01:41:17.442Z,65.60
2023-02-17T01:42:20.622Z,65.70
2023-02-17T01:43:23.372Z,65.47
2023-02-17T01:44:25.448Z,65.75
2023-02-17T01:45:34.270Z,65.47
2023-02-17T01:46:35.951Z,65.56
2023-02-17T01:47:37.469Z,65.63
2023-02-17T01:48:41.374Z,65.71
2023-02-17T01:49:42.830Z,65.26
2023-02-17T01:50:46.053Z,65.55
2023-02-17T01:51:49.090Z,65.34
2023-02-17T01:52:50.644Z,65.55
2023-02-17T01:53:53.586Z,65.37
2023-02-17T01:54:58.713Z,65.46
2023-02-17T01:56:02.035Z,65.59
2023-02-17T01:57:03.618Z,65.50
2023-02-17T01:58:05.135Z,65.57
2023-02-17T01:59:08.374Z,65.42
2023-02-17T02:00:10.372Z,65.39
2023-02-17T02:01:14.484Z,65.18
2023-02-17T02:02:16.043Z,65.35
2023-02-17T02:03:17.628Z,65.28
2023-02-17T02:04:19.473Z,65.46
2023-02-17T02:05:21.011Z,65.57
2023-02-17T02:06:23.645Z,65.59
2023-02-17T02:07:26.790Z,65.40
2023-02-17T02:08:28.357Z,65.76
2023-02-17T02:09:31.199Z,65.52
2023-02-17T02:10:32.921Z,65.57
2023-02-17T02:11:34.576Z,65.51
2023-02-17T02:12:36.653Z,65.44
2023-02-17T02:13:38.173Z,65.45
2023-02-17T02:14:39.625Z,65.34
2023-02-17T02:15:44.095Z,65.56
2023-02-17T02:16:45.717Z,65.85
2023-02-17T02:17:47.153Z,65.48
2023-02-17T02:18:51.516Z,65.99
2023-02-17T02:19:56.016Z,66.08
2023-02-17T02:21:00.261Z,66.24
2023-02-17T02:22:20.337Z,65.98
2023-02-17T02:23:21.854Z,66.29
2023-02-17T02:24:25.579Z,65.89
2023-02-17T02:25:33.985Z,66.03
2023-02-17T02:26:54.263Z,65.72
2023-02-17T02:28:14.704Z,65.74
2023-02-17T02:29:18.196Z,65.75
2023-02-17T02:30:19.671Z,65.73
2023-02-17T02:31:27.027Z,66.11
2023-02-17T02:32:28.484Z,66.18
2023-02-17T02:33:40.935Z,66.50
2023-02-17T02:34:44.493Z,66.57
2023-02-17T02:35:48.780Z,66.88
2023-02-17T02:36:51.395Z,66.74
2023-02-17T02:38:25.573Z,66.64
2023-02-17T02:39:29.323Z,67.19
2023-02-17T02:40:32.405Z,67.15
2023-02-17T02:41:34.909Z,67.38
2023-02-17T02:42:37.341Z,66.98
2023-02-17T02:43:40.790Z,67.15
2023-02-17T02:44:42.840Z,67.44
2023-02-17T02:45:45.268Z,67.37
2023-02-17T02:46:56.061Z,67.88
2023-02-17T02:47:57.765Z,67.74
2023-02-17T02:49:01.829Z,67.96
2023-02-17T02:50:03.436Z,68.20
2023-02-17T02:51:15.912Z,67.94
2023-02-17T02:52:23.372Z,68.34
2023-02-17T02:53:27.862Z,68.13
2023-02-17T02:54:41.423Z,68.27
2023-02-17T02:55:45.759Z,68.01
2023-02-17T02:56:53.001Z,68.01
2023-02-17T02:57:57.246Z,68.31
2023-02-17T02:59:17.536Z,68.07
2023-02-17T03:00:20.815Z,67.77
2023-02-17T03:01:38.931Z,67.55
2023-02-17T03:02:52.318Z,67.41
2023-02-17T03:03:56.564Z,67.95
2023-02-17T03:05:01.212Z,67.71
2023-02-17T03:06:06.633Z,67.95
2023-02-17T03:07:12.535Z,67.80
2023-02-17T03:08:15.992Z,67.69
2023-02-17T03:09:25.034Z,68.02
2023-02-17T03:10:26.538Z,67.67
2023-02-17T03:11:33.855Z,67.72
2023-02-17T03:12:38.221Z,68.10
2023-02-17T03:13:41.034Z,68.20
2023-02-17T03:14:44.986Z,68.21
2023-02-17T03:15:46.670Z,68.74
2023-02-17T03:16:48.692Z,69.65
2023-02-17T03:17:51.884Z,69.54
2023-02-17T03:18:53.541Z,69.72
2023-02-17T03:19:55.568Z,69.44
2023-02-17T03:20:57.617Z,69.59
2023-02-17T03:22:10.037Z,69.90
2023-02-17T03:23:11.640Z,70.11
2023-02-17T03:24:13.158Z,70.19
2023-02-17T03:25:14.688Z,70.10
2023-02-17T03:26:17.247Z,69.94
2023-02-17T03:27:20.406Z,70.06
2023-02-17T03:28:23.033Z,70.65
2023-02-17T03:29:25.013Z,70.65
2023-02-17T03:30:26.596Z,70.98
2023-02-17T03:31:30.703Z,71.48
2023-02-17T03:32:32.498Z,71.07
2023-02-17T03:33:33.983Z,70.85
2023-02-17T03:34:35.454Z,70.61
2023-02-17T03:35:36.970Z,70.41
2023-02-17T03:36:38.491Z,70.33
2023-02-17T03:37:39.969Z,69.97
2023-02-17T03:38:41.545Z,70.15
2023-02-17T03:39:43.007Z,69.92
2023-02-17T03:40:44.447Z,69.90
2023-02-17T03:41:46.133Z,69.64
2023-02-17T03:42:47.857Z,70.09
2023-02-17T03:43:49.287Z,70.02
2023-02-17T03:44:50.905Z,69.89
2023-02-17T03:45:52.412Z,69.98
2023-02-17T03:46:53.959Z,70.36
2023-02-17T03:47:55.431Z,70.20
2023-02-17T03:48:56.918Z,70.23
2023-02-17T03:49:58.415Z,70.55
2023-02-17T03:50:59.866Z,70.06
2023-02-17T03:52:01.348Z,70.37
2023-02-17T03:53:02.917Z,70.40
2023-02-17T03:54:04.621Z,70.45
2023-02-17T03:55:06.147Z,70.40
2023-02-17T03:56:07.819Z,70.39
2023-02-17T03:57:09.453Z,70.56
2023-02-17T03:58:10.915Z,70.47
2023-02-17T03:59:12.403Z,70.07
2023-02-17T04:00:14.125Z,70.13
2023-02-17T04:01:15.619Z,70.04
2023-02-17T04:02:17.178Z,70.22
2023-02-17T04:03:18.682Z,69.97
2023-02-17T04:04:20.224Z,70.02
2023-02-17T04:05:21.733Z,70.13
2023-02-17T04:06:23.239Z,70.24
2023-02-17T04:07:24.796Z,69.98
2023-02-17T04:08:26.356Z,70.28
2023-02-17T04:09:27.823Z,70.21
2023-02-17T04:10:29.297Z,70.37
2023-02-17T04:11:30.842Z,70.50
2023-02-17T04:12:32.348Z,70.61
2023-02-17T04:13:33.988Z,70.80
2023-02-17T04:14:35.534Z,70.89
2023-02-17T04:15:37.104Z,70.74
2023-02-17T04:16:39.317Z,70.28
2023-02-17T04:17:40.872Z,70.62
2023-02-17T04:18:42.349Z,70.62
2023-02-17T04:19:43.785Z,70.24
2023-02-17T04:20:45.298Z,70.30
2023-02-17T04:21:46.719Z,70.46
2023-02-17T04:22:48.213Z,70.85
2023-02-17T04:23:49.736Z,70.76
2023-02-17T04:24:51.199Z,70.56
2023-02-17T04:25:52.757Z,70.45
2023-02-17T04:26:54.283Z,70.53
2023-02-17T04:27:55.780Z,70.52
2023-02-17T04:28:57.306Z,71.03
2023-02-17T04:29:58.834Z,71.46
2023-02-17T04:31:00.573Z,71.66
2023-02-17T04:32:02.263Z,72.10
2023-02-17T04:33:04.060Z,72.22
2023-02-17T04:34:05.633Z,72.50
2023-02-17T04:35:07.342Z,72.54
2023-02-17T04:36:08.881Z,72.70
2023-02-17T04:37:10.438Z,72.70
2023-02-17T04:38:12.026Z,72.65
2023-02-17T04:39:13.474Z,72.72
2023-02-17T04:40:15.103Z,72.91
2023-02-17T04:41:16.609Z,73.01
2023-02-17T04:42:18.072Z,73.10
2023-02-17T04:43:19.531Z,73.30
2023-02-17T04:44:21.089Z,73.27
2023-02-17T04:45:22.632Z,73.27
2023-02-17T04:46:24.105Z,73.62
2023-02-17T04:47:25.655Z,73.54
2023-02-17T04:48:27.131Z,73.45
2023-02-17T04:49:28.584Z,73.62
2023-02-17T04:50:30.032Z,73.90
2023-02-17T04:51:31.473Z,74.16
2023-02-17T04:52:32.966Z,74.42
2023-02-17T04:53:34.473Z,74.22
2023-02-17T04:54:35.981Z,74.44
2023-02-17T04:55:37.492Z,74.34
2023-02-17T04:56:38.968Z,74.67
2023-02-17T04:57:40.477Z,74.31
2023-02-17T04:58:41.950Z,74.29
2023-02-17T04:59:43.495Z,74.30
2023-02-17T05:00:46.315Z,74.13
2023-02-17T05:01:47.851Z,74.68
2023-02-17T05:02:49.352Z,74.19
2023-02-17T05:03:50.858Z,73.82
2023-02-17T05:04:52.899Z,73.65
2023-02-17T05:05:54.400Z,73.79
2023-02-17T05:06:55.908Z,73.90
2023-02-17T05:07:57.433Z,73.98
2023-02-17T05:08:58.913Z,74.32
2023-02-17T05:10:00.377Z,74.50
2023-02-17T05:11:01.897Z,74.85
2023-02-17T05:12:05.554Z,75.29
2023-02-17T05:13:07.020Z,75.11
2023-02-17T05:14:08.525Z,74.81
2023-02-17T05:15:10.078Z,74.23
2023-02-17T05:16:11.601Z,74.28
2023-02-17T05:17:13.065Z,74.54
2023-02-17T05:18:14.547Z,74.63
2023-02-17T05:19:16.049Z,74.53
2023-02-17T05:20:17.525Z,74.45
2023-02-17T05:21:19.072Z,74.48
2023-02-17T05:22:20.546Z,74.45
2023-02-17T05:23:22.105Z,74.25
2023-02-17T05:24:23.659Z,73.96
2023-02-17T05:25:25.174Z,74.13
2023-02-17T05:26:26.822Z,73.99
2023-02-17T05:27:28.295Z,73.71
2023-02-17T05:28:29.772Z,74.07
2023-02-17T05:29:31.323Z,73.86
2023-02-17T05:30:32.786Z,73.91
2023-02-17T05:31:34.372Z,73.45
2023-02-17T05:32:36.000Z,73.57
2023-02-17T05:33:37.517Z,73.93
2023-02-17T05:34:39.150Z,73.82
2023-02-17T05:35:40.599Z,73.90
2023-02-17T05:36:42.115Z,73.96
2023-02-17T05:37:43.621Z,73.68
2023-02-17T05:38:49.092Z,73.23
2023-02-17T05:39:50.603Z,73.84
2023-02-17T05:40:52.108Z,73.47
2023-02-17T05:41:55.360Z,73.23
2023-02-17T05:42:58.080Z,73.39
2023-02-17T05:43:59.601Z,73.07
2023-02-17T05:45:01.196Z,72.93
2023-02-17T05:46:03.369Z,73.45
2023-02-17T05:47:05.005Z,73.69
2023-02-17T05:48:06.497Z,73.91
2023-02-17T05:49:07.976Z,74.12
2023-02-17T05:50:09.604Z,74.23
2023-02-17T05:51:13.673Z,74.06
2023-02-17T05:52:15.255Z,73.73
2023-02-17T05:53:16.743Z,73.68
2023-02-17T05:54:18.222Z,73.48
2023-02-17T05:55:19.705Z,73.66
2023-02-17T05:56:21.264Z,73.52
2023-02-17T05:57:22.825Z,74.27
2023-02-17T05:58:24.477Z,74.39
2023-02-17T05:59:26.042Z,74.37
2023-02-17T06:00:27.930Z,74.40
2023-02-17T06:01:29.455Z,74.27
2023-02-17T06:02:30.935Z,74.08
2023-02-17T06:03:32.392Z,74.04
2023-02-17T06:04:33.976Z,73.72
2023-02-17T06:05:35.470Z,73.86
2023-02-17T06:06:36.987Z,73.91
2023-02-17T06:07:38.480Z,73.75
2023-02-17T06:08:40.600Z,73.36
2023-02-17T06:09:42.089Z,73.65
2023-02-17T06:10:43.676Z,73.76
2023-02-17T06:11:45.149Z,73.55
2023-02-17T06:12:46.676Z,73.72
2023-02-17T06:13:48.371Z,73.32
2023-02-17T06:14:49.927Z,73.33
2023-02-17T06:15:51.529Z,73.42
2023-02-17T06:16:53.782Z,73.16
2023-02-17T06:17:55.296Z,72.91
2023-02-17T06:18:56.837Z,72.98
2023-02-17T06:19:58.438Z,73.04
2023-02-17T06:20:59.937Z,73.33
2023-02-17T06:22:01.405Z,73.38
2023-02-17T06:23:02.971Z,73.01
2023-02-17T06:24:04.594Z,73.39
2023-02-17T06:25:06.314Z,73.12
2023-02-17T06:26:08.262Z,73.43
2023-02-17T06:27:10.019Z,73.74
2023-02-17T06:28:11.524Z,73.72
2023-02-17T06:29:13.001Z,74.14
2023-02-17T06:30:15.009Z,74.03
2023-02-17T06:31:16.773Z,73.72
2023-02-17T06:32:18.315Z,74.18
2023-02-17T06:33:19.836Z,73.96
2023-02-17T06:34:21.406Z,73.76
2023-02-17T06:35:22.894Z,73.87
2023-02-17T06:36:24.372Z,74.03
2023-02-17T06:37:25.838Z,74.35
2023-02-17T06:38:27.426Z,74.29
2023-02-17T06:39:28.896Z,74.72
2023-02-17T06:40:30.345Z,74.51
2023-02-17T06:41:31.849Z,74.67
2023-02-17T06:42:33.352Z,75.01
2023-02-17T06:43:34.917Z,74.71
2023-02-17T06:44:36.446Z,74.73
2023-02-17T06:45:37.946Z,74.59
2023-02-17T06:46:39.519Z,74.34
2023-02-17T06:47:41.052Z,74.50
2023-02-17T06:48:42.616Z,74.47
2023-02-17T06:49:44.173Z,74.45
2023-02-17T06:50:45.632Z,74.40
2023-02-17T06:51:47.156Z,74.24
2023-02-17T06:52:48.749Z,74.11
2023-02-17T06:53:50.210Z,73.60
2023-02-17T06:54:51.701Z,73.87
2023-02-17T06:55:53.239Z,73.88
2023-02-17T06:56:54.702Z,73.68
2023-02-17T06:57:56.295Z,73.98
2023-02-17T06:58:57.824Z,74.11
2023-02-17T06:59:59.335Z,73.90
2023-02-17T07:01:00.978Z,74.04
2023-02-17T07:02:02.905Z,74.04
2023-02-17T07:03:04.690Z,73.72
2023-02-17T07:04:06.341Z,73.79
2023-02-17T07:05:08.050Z,73.81
2023-02-17T07:06:09.552Z,74.49
2023-02-17T07:07:11.271Z,74.93
2023-02-17T07:08:12.772Z,75.17
2023-02-17T07:09:14.350Z,75.02
2023-02-17T07:10:15.838Z,74.98
2023-02-17T07:11:17.581Z,74.74
2023-02-17T07:12:19.110Z,74.66
2023-02-17T07:13:20.642Z,74.67
2023-02-17T07:14:24.667Z,74.62
2023-02-17T07:15:26.449Z,74.80
2023-02-17T07:16:28.015Z,74.60
2023-02-17T07:17:29.617Z,74.52
2023-02-17T07:18:31.106Z,74.32
2023-02-17T07:19:32.572Z,74.26
2023-02-17T07:20:34.263Z,74.05
2023-02-17T07:21:35.802Z,73.88
2023-02-17T07:22:37.263Z,73.93
2023-02-17T07:23:39.584Z,74.04
2023-02-17T07:24:41.069Z,73.77
2023-02-17T07:25:42.621Z,73.85
2023-02-17T07:26:44.076Z,73.86
2023-02-17T07:27:45.544Z,74.29
2023-02-17T07:28:47.114Z,74.25
2023-02-17T07:29:48.593Z,74.17
2023-02-17T07:30:50.123Z,74.54
2023-02-17T07:31:51.729Z,74.60
2023-02-17T07:32:53.227Z,74.66
2023-02-17T07:33:54.764Z,74.35
2023-02-17T07:34:56.285Z,74.28
2023-02-17T07:35:57.802Z,74.46
2023-02-17T07:36:59.381Z,74.75
2023-02-17T07:38:00.914Z,75.00
2023-02-17T07:39:02.891Z,74.98
2023-02-17T07:40:04.873Z,74.68
2023-02-17T07:41:10.552Z,74.74
2023-02-17T07:42:12.087Z,74.62
2023-02-17T07:43:14.154Z,74.42
2023-02-17T07:44:15.616Z,74.53
2023-02-17T07:45:17.250Z,74.50
2023-02-17T07:46:18.718Z,74.58
2023-02-17T07:47:20.219Z,74.71
2023-02-17T07:48:21.817Z,74.57
2023-02-17T07:49:23.313Z,74.38
2023-02-17T07:50:24.767Z,74.39
2023-02-17T07:51:26.344Z,74.49
2023-02-17T07:52:27.873Z,74.25
2023-02-17T07:53:29.388Z,74.12
2023-02-17T07:54:30.907Z,73.98
2023-02-17T07:55:32.821Z,73.97
2023-02-17T07:56:34.326Z,74.29
2023-02-17T07:57:35.865Z,74.04
2023-02-17T07:58:37.903Z,74.06
2023-02-17T07:59:39.387Z,73.79
2023-02-17T08:00:40.896Z,74.16
2023-02-17T08:01:42.392Z,74.19
2023-02-17T08:02:43.982Z,74.00
2023-02-17T08:03:45.457Z,74.12
2023-02-17T08:04:46.923Z,74.41
2023-02-17T08:05:51.426Z,74.28
2023-02-17T08:06:52.917Z,74.03
2023-02-17T08:08:14.444Z,74.06
2023-02-17T08:09:34.402Z,73.56
2023-02-17T08:10:55.629Z,73.85
2023-02-17T08:12:15.379Z,73.87
2023-02-17T08:13:19.845Z,73.74
2023-02-17T08:14:21.617Z,73.95
2023-02-17T08:15:23.108Z,73.81
2023-02-17T08:16:27.017Z,73.78
2023-02-17T08:17:28.945Z,74.03
2023-02-17T08:18:32.425Z,74.19
2023-02-17T08:19:51.681Z,74.25
2023-02-17T08:20:53.178Z,74.13
2023-02-17T08:21:54.692Z,74.05
2023-02-17T08:22:56.239Z,74.10
2023-02-17T08:23:57.748Z,73.95
2023-02-17T08:24:59.311Z,73.84
2023-02-17T08:26:00.890Z,73.69
2023-02-17T08:27:02.377Z,73.76
2023-02-17T08:28:04.054Z,73.68
2023-02-17T08:29:05.658Z,73.52
2023-02-17T08:30:07.504Z,73.74
2023-02-17T08:31:18.699Z,73.78
2023-02-17T08:32:20.365Z,73.62
2023-02-17T08:33:22.010Z,73.77
2023-02-17T08:34:23.594Z,73.97
2023-02-17T08:35:25.874Z,73.96
2023-02-17T08:36:27.637Z,74.10
2023-02-17T08:37:30.305Z,74.49
2023-02-17T08:38:31.842Z,74.40
2023-02-17T08:39:33.432Z,74.31
2023-02-17T08:40:34.876Z,74.25
2023-02-17T08:41:36.911Z,74.46
2023-02-17T08:42:38.888Z,74.30
2023-02-17T08:43:40.653Z,74.40
2023-02-17T08:44:42.161Z,74.24
2023-02-17T08:45:44.116Z,74.27
2023-02-17T08:46:47.445Z,74.43
2023-02-17T08:47:50.960Z,74.40
2023-02-17T08:48:52.461Z,74.33
2023-02-17T08:49:53.982Z,74.48
2023-02-17T08:50:55.496Z,74.55
2023-02-17T08:51:57.051Z,74.82
2023-02-17T08:52:58.577Z,74.42
2023-02-17T08:54:00.785Z,74.47
2023-02-17T08:55:02.305Z,74.16
2023-02-17T08:56:03.942Z,74.13
2023-02-17T08:57:05.627Z,74.26
2023-02-17T08:58:07.215Z,74.38
2023-02-17T08:59:08.910Z,74.49
2023-02-17T09:00:10.676Z,74.49
2023-02-17T09:01:12.389Z,74.33
2023-02-17T09:02:14.388Z,74.34
2023-02-17T09:03:15.908Z,74.36
2023-02-17T09:04:17.587Z,74.67
2023-02-17T09:05:19.199Z,74.42
2023-02-17T09:06:21.481Z,74.80
2023-02-17T09:07:23.073Z,74.69
2023-02-17T09:08:24.653Z,74.83
2023-02-17T09:09:29.271Z,74.86
2023-02-17T09:10:30.817Z,74.68
2023-02-17T09:11:32.354Z,74.86
2023-02-17T09:12:34.411Z,75.21
2023-02-17T09:13:36.138Z,75.06
2023-02-17T09:14:37.707Z,74.94
2023-02-17T09:15:39.334Z,74.71
2023-02-17T09:16:41.717Z,74.95
2023-02-17T09:17:43.311Z,74.79
2023-02-17T09:18:44.802Z,74.91
2023-02-17T09:19:47.127Z,74.97
2023-02-17T09:20:48.779Z,75.06
2023-02-17T09:21:50.346Z,75.11
2023-02-17T09:22:52.483Z,74.86
2023-02-17T09:23:56.061Z,75.05
2023-02-17T09:24:57.592Z,75.14
2023-02-17T09:26:05.954Z,75.52
2023-02-17T09:27:09.109Z,75.68
2023-02-17T09:28:10.927Z,75.61
2023-02-17T09:29:12.422Z,75.45
2023-02-17T09:30:14.140Z,75.66
2023-02-17T09:31:19.867Z,75.72
2023-02-17T09:32:21.624Z,76.11
2023-02-17T09:33:23.199Z,76.36
2023-02-17T09:34:24.849Z,76.25
2023-02-17T09:35:26.417Z,76.08
2023-02-17T09:36:31.204Z,76.10
2023-02-17T09:37:32.704Z,76.07
2023-02-17T09:38:34.253Z,76.38
2023-02-17T09:39:35.752Z,76.33
2023-02-17T09:40:49.966Z,76.30
2023-02-17T09:41:55.391Z,75.90
2023-02-17T09:42:56.909Z,75.75
2023-02-17T09:43:58.406Z,75.74
2023-02-17T09:45:00.428Z,75.73
2023-02-17T09:46:10.380Z,75.97
2023-02-17T09:47:16.311Z,76.10
2023-02-17T09:48:18.625Z,76.20
2023-02-17T09:49:21.222Z,76.32
2023-02-17T09:50:45.853Z,76.34
2023-02-17T09:51:59.052Z,75.99
2023-02-17T09:53:05.082Z,76.07
2023-02-17T09:54:06.521Z,76.18
2023-02-17T09:55:09.593Z,76.07
2023-02-17T09:56:12.108Z,76.08
2023-02-17T09:57:15.880Z,76.11
2023-02-17T09:58:28.071Z,76.08
2023-02-17T09:59:33.575Z,76.16
2023-02-17T10:00:35.084Z,76.37
2023-02-17T10:01:36.712Z,76.12
2023-02-17T10:02:43.692Z,76.14
2023-02-17T10:03:46.854Z,75.94
2023-02-17T10:04:48.487Z,75.61
2023-02-17T10:05:52.293Z,75.67
2023-02-17T10:06:54.937Z,75.64
2023-02-17T10:08:16.674Z,75.50
2023-02-17T10:09:24.341Z,75.42
2023-02-17T10:10:26.748Z,75.33
2023-02-17T10:11:30.774Z,75.13
2023-02-17T10:12:37.242Z,74.94
2023-02-17T10:13:38.845Z,74.78
2023-02-17T10:14:43.134Z,74.50
2023-02-17T10:15:45.143Z,74.38
2023-02-17T10:16:51.584Z,74.43
2023-02-17T10:17:57.396Z,74.17
2023-02-17T10:19:04.975Z,74.19
2023-02-17T10:20:09.139Z,74.20
2023-02-17T10:21:13.067Z,74.39
2023-02-17T10:22:16.053Z,74.38
2023-02-17T10:23:18.942Z,74.39
2023-02-17T10:24:20.505Z,74.37
2023-02-17T10:25:42.265Z,74.48
2023-02-17T10:26:53.551Z,74.23
2023-02-17T10:28:00.881Z,74.22
2023-02-17T10:29:13.800Z,74.06
2023-02-17T10:30:20.719Z,74.48
2023-02-17T10:31:34.487Z,74.58
2023-02-17T10:32:44.843Z,74.73
2023-02-17T10:33:55.377Z,74.43
2023-02-17T10:35:02.855Z,74.56
2023-02-17T10:36:07.678Z,74.49
2023-02-17T10:37:12.501Z,74.76
2023-02-17T10:38:15.764Z,74.63
2023-02-17T10:39:35.570Z,74.50
2023-02-17T10:40:37.036Z,74.53
2023-02-17T10:41:38.594Z,74.45
2023-02-17T10:42:40.132Z,74.48
2023-02-17T10:43:41.692Z,74.57
2023-02-17T10:44:43.226Z,74.50
2023-02-17T10:45:45.524Z,74.37
2023-02-17T10:46:48.518Z,74.26
2023-02-17T10:47:50.089Z,74.11
2023-02-17T10:48:51.861Z,74.00
2023-02-17T10:49:53.626Z,73.84
2023-02-17T10:50:56.301Z,73.60
2023-02-17T10:52:09.892Z,73.30
2023-02-17T10:53:25.427Z,73.44
2023-02-17T10:54:32.755Z,73.44
2023-02-17T10:55:37.870Z,73.60
2023-02-17T10:56:40.060Z,73.75
2023-02-17T10:57:41.548Z,73.79
2023-02-17T10:58:45.940Z,73.68
2023-02-17T10:59:47.929Z,73.52
2023-02-17T11:00:50.045Z,73.51
2023-02-17T11:01:51.572Z,73.61
2023-02-17T11:02:53.012Z,73.47
2023-02-17T11:04:04.600Z,73.89
2023-02-17T11:05:06.764Z,73.67
2023-02-17T11:06:18.258Z,73.60
2023-02-17T11:07:21.307Z,73.44
2023-02-17T11:08:30.582Z,73.43
2023-02-17T11:09:32.937Z,73.29
2023-02-17T11:10:34.425Z,73.41
2023-02-17T11:11:35.938Z,73.28
2023-02-17T11:12:40.458Z,73.33
2023-02-17T11:13:46.289Z,73.25
2023-02-17T11:14:51.710Z,73.21
2023-02-17T11:15:53.199Z,73.34
2023-02-17T11:16:58.975Z,73.32
2023-02-17T11:18:00.665Z,73.53
2023-02-17T11:19:02.465Z,73.59
2023-02-17T11:20:27.093Z,73.54
2023-02-17T11:21:29.075Z,73.74
2023-02-17T11:22:32.355Z,73.51
2023-02-17T11:23:33.834Z,73.61
2023-02-17T11:24:35.347Z,73.53
2023-02-17T11:25:37.836Z,73.42
2023-02-17T11:26:39.337Z,73.54
2023-02-17T11:27:40.792Z,73.30
2023-02-17T11:28:42.294Z,73.33
2023-02-17T11:29:43.730Z,73.39
2023-02-17T11:30:49.997Z,73.64
2023-02-17T11:31:55.514Z,73.79
2023-02-17T11:32:57.030Z,73.84
2023-02-17T11:33:58.562Z,73.90
2023-02-17T11:35:06.297Z,73.91
2023-02-17T11:36:08.410Z,73.67
2023-02-17T11:37:23.766Z,73.99
2023-02-17T11:38:41.328Z,73.71
2023-02-17T11:39:43.929Z,73.62
2023-02-17T11:40:54.236Z,73.77
2023-02-17T11:41:55.784Z,73.95
2023-02-17T11:43:00.538Z,73.49
2023-02-17T11:44:02.180Z,73.58
2023-02-17T11:45:12.024Z,73.57
2023-02-17T11:46:33.891Z,73.62
2023-02-17T11:47:38.993Z,73.51
2023-02-17T11:48:52.803Z,73.37
2023-02-17T11:49:57.578Z,73.78
2023-02-17T11:51:14.620Z,73.50
2023-02-17T11:52:16.078Z,73.24
2023-02-17T11:53:22.843Z,73.32
2023-02-17T11:54:26.529Z,73.12
2023-02-17T11:55:36.779Z,73.11
2023-02-17T11:56:38.748Z,73.50
2023-02-17T11:57:40.910Z,73.57
2023-02-17T11:58:55.013Z,73.63
2023-02-17T11:59:56.557Z,73.91
2023-02-17T12:00:58.043Z,73.03
2023-02-17T12:02:02.525Z,72.75
2023-02-17T12:03:18.430Z,72.46
2023-02-17T12:04:38.676Z,72.71
2023-02-17T12:05:40.197Z,72.55
2023-02-17T12:07:00.104Z,72.55
2023-02-17T12:08:20.338Z,72.85
2023-02-17T12:09:30.055Z,72.30
2023-02-17T12:10:31.548Z,72.20
2023-02-17T12:11:35.408Z,71.70
2023-02-17T12:12:41.684Z,71.14
2023-02-17T12:13:45.753Z,71.81
2023-02-17T12:14:59.508Z,70.56
2023-02-17T12:16:01.026Z,70.41
2023-02-17T12:17:22.784Z,71.32
2023-02-17T12:18:33.809Z,70.43
2023-02-17T12:19:44.370Z,70.59
2023-02-17T12:20:52.126Z,70.57
2023-02-17T12:22:02.170Z,70.26
2023-02-17T12:23:18.778Z,70.09
2023-02-17T12:24:26.188Z,70.09
2023-02-17T12:25:29.021Z,69.27
2023-02-17T12:26:36.317Z,69.40
2023-02-17T12:27:46.478Z,68.81
2023-02-17T12:29:06.385Z,69.01
2023-02-17T12:30:22.910Z,68.50
2023-02-17T12:31:44.881Z,68.70
2023-02-17T12:32:46.434Z,68.74
2023-02-17T12:34:00.884Z,68.83
2023-02-17T12:35:14.291Z,68.58
2023-02-17T12:36:16.208Z,67.42
2023-02-17T12:37:18.630Z,67.55
2023-02-17T12:38:46.840Z,67.07
2023-02-17T12:39:50.097Z,67.31
2023-02-17T12:41:05.859Z,67.68
2023-02-17T12:42:08.326Z,67.89
2023-02-17T12:43:33.102Z,68.24
2023-02-17T12:44:37.080Z,68.34
2023-02-17T12:45:40.083Z,68.65
2023-02-17T12:46:42.784Z,68.73
2023-02-17T12:47:55.297Z,68.67
2023-02-17T12:49:11.053Z,68.39
2023-02-17T12:50:16.460Z,68.40
2023-02-17T12:51:20.315Z,68.42
2023-02-17T12:52:24.201Z,68.57
2023-02-17T12:53:34.369Z,68.56
2023-02-17T12:54:35.844Z,68.78
2023-02-17T12:55:48.331Z,68.74
2023-02-17T12:56:52.675Z,68.54
2023-02-17T12:57:58.513Z,68.82
2023-02-17T12:59:05.849Z,68.87
2023-02-17T13:00:18.310Z,68.98
2023-02-17T13:01:21.674Z,69.40
2023-02-17T13:02:24.062Z,69.79
2023-02-17T13:03:28.421Z,69.95
2023-02-17T13:04:30.105Z,70.16
2023-02-17T13:05:39.741Z,70.31
2023-02-17T13:06:43.145Z,70.59
2023-02-17T13:07:44.697Z,70.80
2023-02-17T13:08:47.092Z,70.67
2023-02-17T13:09:48.860Z,70.79
2023-02-17T13:10:59.674Z,70.97
2023-02-17T13:12:30.569Z,70.99
2023-02-17T13:13:32.937Z,70.92
2023-02-17T13:14:40.621Z,71.16
2023-02-17T13:15:45.522Z,71.15
2023-02-17T13:16:47.543Z,71.04
2023-02-17T13:17:52.672Z,71.04
2023-02-17T13:18:54.184Z,71.33
2023-02-17T13:20:01.621Z,71.35
2023-02-17T13:21:26.348Z,71.24
2023-02-17T13:22:27.808Z,71.18
2023-02-17T13:23:35.034Z,71.33
2023-02-17T13:24:39.996Z,71.23
2023-02-17T13:25:41.578Z,71.27
2023-02-17T13:26:43.500Z,71.26
2023-02-17T13:27:45.737Z,71.20
2023-02-17T13:28:47.278Z,71.24
2023-02-17T13:30:09.074Z,71.18
2023-02-17T13:31:15.344Z,71.15
2023-02-17T13:32:26.326Z,71.00
2023-02-17T13:33:29.487Z,70.93
2023-02-17T13:34:33.715Z,71.00
2023-02-17T13:35:36.086Z,70.92
2023-02-17T13:36:37.833Z,70.98
2023-02-17T13:37:43.082Z,70.85
2023-02-17T13:38:55.778Z,70.82
2023-02-17T13:39:57.254Z,70.59
2023-02-17T13:41:02.444Z,70.54